Mount Union, Iowa
Current Conditions -  °F | °C
As of 3:55 PM on Monday 22 Dec 2014 (Local Time) from KMPZ Reporting Station
Moderate Fog Moderate Fog  
Wind Chill: 33°   Ceiling: 100
Heat Index: 39°   Visibility: 0.5mi
Dew Point: 39°   Wind: 9mph
Humidity: 100%   Direction: 120°ESE
Pressure: 29.53"   Gusts: NA
Location:  41.06°N, 91.39°W
Report Text: KMPZ 222155Z AUTO 12008KT 1/2SM FG OVC001 04/04 A2953 RMK AO2 T00380038
Loading
Personal Weather Stations






























Interactive Weather Map New forecast layout! Learn more

10-Day Weather Forecast

Advertisements
Track Severe Weather on mobile